Time;durP1;ratioP1;P1;durP2;ratioP2;P2;SDS_P1;SDS_P2;PMS_P1;PMS_P2;Temp;Humidity;BMP_temperature;BMP_pressure;BME280_temperature;BME280_humidity;BME280_pressure;Samples;Min_cycle;Max_cycle;Signal;HPM_P1;HPM_P2
2022/11/07 00:29:59;;;;;;;4.40;2.50;;;10.80;99.90;;;;;;6265043;22;20017;-94
2022/11/07 00:32:24;;;;;;;6.57;2.60;;;10.80;99.90;;;;;;6162150;22;20360;-93
2022/11/07 00:34:50;;;;;;;6.73;3.20;;;10.80;99.90;;;;;;6161978;23;20015;-89
2022/11/07 00:37:16;;;;;;;5.93;2.73;;;10.80;99.90;;;;;;6162175;22;20052;-90
2022/11/07 00:39:44;;;;;;;5.17;3.00;;;10.80;99.90;;;;;;6161968;22;20021;-94
2022/11/07 01:22:41;;;;;;;4.43;2.13;;;10.90;99.90;;;;;;6212518;23;20024;-93
2022/11/07 01:25:07;;;;;;;3.50;2.05;;;10.90;99.90;;;;;;6163303;23;20021;-96
2022/11/07 01:32:43;;;;;;;4.30;2.55;;;10.90;99.90;;;;;;6213111;23;20028;-96
2022/11/07 01:49:30;;;;;;;6.80;2.47;;;11.00;99.90;;;;;;6238272;22;20008;-94
2022/11/07 01:52:05;;;;;;;4.35;2.15;;;11.00;99.90;;;;;;6184462;22;20075;-94
2022/11/07 01:54:36;;;;;;;3.83;2.10;;;11.00;99.90;;;;;;6161377;23;20013;-94
2022/11/07 01:57:05;;;;;;;5.57;2.05;;;11.00;99.90;;;;;;6161721;23;20114;-96
2022/11/07 01:59:36;;;;;;;6.10;2.47;;;11.00;99.90;;;;;;6162300;23;20024;-94
2022/11/07 06:24:47;;;;;;;5.68;1.95;;;10.70;99.90;;;;;;6229938;22;20080;-92
2022/11/07 06:27:14;;;;;;;5.78;2.10;;;10.80;99.90;;;;;;6313958;22;20053;-93
2022/11/07 06:29:50;;;;;;;5.38;1.65;;;10.70;99.90;;;;;;6332133;22;20094;-95
2022/11/07 07:57:27;;;;;;;6.13;2.10;;;10.90;99.90;;;;;;6231025;22;20110;-92
2022/11/07 07:59:53;;;;;;;;;;;10.90;99.90;;;;;;6165809;22;20024;-94
2022/11/07 08:02:19;;;;;;;6.40;2.38;;;10.90;99.90;;;;;;6166613;23;19951;-92
2022/11/07 08:04:46;;;;;;;6.43;2.97;;;11.00;99.90;;;;;;6142455;23;20021;-91
2022/11/07 08:07:12;;;;;;;6.35;2.45;;;11.00;99.90;;;;;;6217285;23;20019;-95
2022/11/07 08:09:37;;;;;;;5.77;2.37;;;11.00;99.90;;;;;;6167306;23;20437;-93
2022/11/07 08:12:07;;;;;;;6.80;2.57;;;11.00;99.90;;;;;;6142718;23;20025;-94
2022/11/07 08:14:42;;;;;;;6.82;2.50;;;11.00;99.90;;;;;;6192060;23;20465;-94
2022/11/07 08:17:08;;;;;;;6.00;2.50;;;11.00;99.90;;;;;;6140970;23;20016;-94
2022/11/07 08:19:55;;;;;;;5.37;2.20;;;11.00;99.90;;;;;;6142351;23;20032;-95
2022/11/07 08:22:21;;;;;;;5.32;2.65;;;11.00;99.90;;;;;;6165380;22;20017;-93
2022/11/07 08:24:47;;;;;;;6.00;2.37;;;11.00;99.90;;;;;;6192290;23;20074;-95
2022/11/07 08:27:13;;;;;;;6.80;1.97;;;11.00;99.90;;;;;;6158515;22;19996;-92
2022/11/07 08:29:42;;;;;;;4.85;2.15;;;11.00;99.90;;;;;;6213624;23;20000;-92
2022/11/07 08:32:08;;;;;;;5.93;2.43;;;11.10;99.90;;;;;;6196318;23;20048;-94
2022/11/07 08:34:33;;;;;;;6.13;2.60;;;11.10;99.90;;;;;;6189417;23;20236;-95
2022/11/07 08:36:59;;;;;;;4.07;2.20;;;11.10;99.90;;;;;;6188767;23;20503;-92
2022/11/07 08:39:26;;;;;;;7.67;2.90;;;11.10;99.90;;;;;;6187395;23;20017;-90
2022/11/07 08:41:52;;;;;;;7.20;2.72;;;11.10;99.90;;;;;;6167071;22;20016;-93
2022/11/07 08:44:21;;;;;;;5.40;2.17;;;11.10;99.90;;;;;;6169415;23;20016;-96
2022/11/07 08:46:47;;;;;;;6.00;2.58;;;11.10;99.90;;;;;;6168351;23;20020;-92
2022/11/07 08:49:13;;;;;;;5.60;2.25;;;11.10;99.90;;;;;;6223162;23;20052;-92
2022/11/07 08:56:50;;;;;;;7.00;2.40;;;11.20;99.90;;;;;;6190457;23;20039;-93
2022/11/07 08:59:33;;;;;;;5.53;2.40;;;11.20;99.90;;;;;;6138164;23;20025;-93
2022/11/07 09:27:55;;;;;;;8.32;2.25;;;11.40;99.90;;;;;;6217664;22;20017;-94
2022/11/07 09:30:30;;;;;;;6.47;2.42;;;11.40;99.90;;;;;;6168897;23;20024;-96
2022/11/07 09:44:16;;;;;;;3.63;1.52;;;11.60;99.90;;;;;;6183860;23;20086;-93
2022/11/07 12:31:47;;;;;;;5.93;1.63;;;13.10;99.90;;;;;;6251759;22;20028;-91
2022/11/07 12:34:19;;;;;;;5.65;1.80;;;13.10;99.90;;;;;;6227028;22;20030;-92
2022/11/07 12:37:05;;;;;;;4.15;1.75;;;13.20;99.90;;;;;;6239169;22;20008;-93
2022/11/07 12:39:59;;;;;;;5.05;1.90;;;13.20;99.90;;;;;;6227627;22;20030;-96
2022/11/07 12:50:20;;;;;;;6.00;1.80;;;13.50;99.90;;;;;;6205943;23;20032;-93
2022/11/07 13:35:21;;;;;;;3.78;1.35;;;13.50;99.90;;;;;;6207617;22;20032;-94
2022/11/07 13:37:59;;;;;;;3.67;1.10;;;13.40;99.90;;;;;;6287917;22;20018;-91
2022/11/07 13:40:35;;;;;;;6.32;1.40;;;13.40;99.90;;;;;;6287163;22;20018;-92
2022/11/07 13:43:14;;;;;;;5.23;1.03;;;13.30;99.90;;;;;;6287344;22;20018;-93
2022/11/07 14:22:33;;;;;;;7.35;4.72;;;13.10;99.90;;;;;;6315288;22;20311;-92
2022/11/07 14:24:59;;;;;;;7.75;4.60;;;13.10;99.90;;;;;;6137205;23;20031;-95
2022/11/07 14:27:24;;;;;;;19.70;17.45;;;13.10;99.90;;;;;;6161912;23;20047;-95
2022/11/07 14:29:58;;;;;;;5.57;2.30;;;13.10;99.90;;;;;;6161556;23;20051;-94
2022/11/07 14:32:25;;;;;;;4.03;1.63;;;13.10;99.90;;;;;;6161764;23;20028;-94
2022/11/07 16:52:27;;;;;;;6.63;1.77;;;12.80;99.90;;;;;;6217763;22;20044;-95
2022/11/07 16:55:12;;;;;;;5.50;1.85;;;12.80;99.90;;;;;;6187380;23;20144;-95
2022/11/07 16:57:53;;;;;;;6.90;2.20;;;12.80;99.90;;;;;;6188712;23;20021;-96
2022/11/07 17:00:22;;;;;;;6.07;2.00;;;12.70;99.90;;;;;;6164745;23;20103;-96
2022/11/07 17:02:50;;;;;;;5.22;2.03;;;12.80;99.90;;;;;;6188888;23;20100;-96
2022/11/07 17:05:16;;;;;;;4.47;1.70;;;12.80;99.90;;;;;;6189915;23;20506;-95
2022/11/07 17:07:48;;;;;;;6.05;1.88;;;12.80;99.90;;;;;;6189206;23;20016;-96
2022/11/07 17:10:17;;;;;;;3.65;1.52;;;12.80;99.90;;;;;;6213282;23;20012;-96
2022/11/07 17:12:47;;;;;;;4.50;1.80;;;12.70;99.90;;;;;;6191645;23;20458;-95
2022/11/07 17:20:26;;;;;;;6.50;2.20;;;12.80;99.90;;;;;;6183603;23;20025;-95
2022/11/07 17:22:52;;;;;;;9.73;2.72;;;12.70;99.90;;;;;;6133346;23;20029;-92
2022/11/07 17:25:21;;;;;;;4.27;2.00;;;12.70;99.90;;;;;;6111245;23;20024;-95
2022/11/07 17:27:46;;;;;;;8.65;2.13;;;12.70;99.90;;;;;;6135380;23;20796;-94
2022/11/07 17:30:17;;;;;;;6.83;2.20;;;12.70;99.90;;;;;;6134149;23;20024;-89
2022/11/07 17:32:42;;;;;;;5.15;1.80;;;12.70;99.90;;;;;;6156535;23;20276;-94
2022/11/07 17:35:09;;;;;;;9.32;2.50;;;12.70;99.90;;;;;;6133659;23;20017;-92
2022/11/07 17:37:34;;;;;;;4.63;2.08;;;12.70;99.90;;;;;;6132758;23;20021;-93
2022/11/07 17:40:00;;;;;;;4.73;1.80;;;12.70;99.90;;;;;;6132477;23;20532;-90
2022/11/07 17:42:29;;;;;;;5.07;2.00;;;12.70;99.90;;;;;;6132425;23;20249;-92
2022/11/07 17:44:57;;;;;;;5.78;1.67;;;12.60;99.90;;;;;;6108961;23;20021;-94
2022/11/07 17:47:36;;;;;;;7.03;2.05;;;12.70;99.90;;;;;;6112605;23;20021;-91
2022/11/07 17:51:06;;;;;;;5.63;1.95;;;12.70;99.90;;;;;;6132162;23;20106;-96
2022/11/07 17:53:58;;;;;;;5.88;2.15;;;12.60;99.90;;;;;;6171563;23;20021;-93
2022/11/07 17:56:36;;;;;;;6.65;2.50;;;12.60;99.90;;;;;;6139006;23;20017;-92
2022/11/07 17:59:40;;;;;;;3.45;1.50;;;12.60;99.90;;;;;;6142853;23;20025;-92
2022/11/07 18:02:46;;;;;;;5.97;2.47;;;12.60;99.90;;;;;;6108809;23;20066;-92
2022/11/07 18:05:14;;;;;;;6.70;1.70;;;12.70;99.90;;;;;;6133072;23;20017;-91
2022/11/07 18:57:33;;;;;;;4.47;1.33;;;12.70;99.90;;;;;;6218657;22;20020;-94
2022/11/07 19:00:03;;;;;;;3.22;1.45;;;12.70;99.90;;;;;;6195144;22;20021;-90
2022/11/07 19:02:33;;;;;;;5.13;1.52;;;12.70;99.90;;;;;;6143272;23;20024;-89
2022/11/07 19:05:11;;;;;;;7.18;1.80;;;12.70;99.90;;;;;;6133575;23;20022;-91
2022/11/07 19:07:41;;;;;;;4.68;1.80;;;12.60;99.90;;;;;;6083775;23;20017;-90
2022/11/07 19:10:07;;;;;;;3.08;1.33;;;12.70;99.90;;;;;;6082812;23;20049;-91
2022/11/07 19:12:33;;;;;;;3.92;1.48;;;12.70;99.90;;;;;;6103966;23;20018;-91
2022/11/07 19:14:59;;;;;;;5.17;1.77;;;12.70;99.90;;;;;;6084104;23;20052;-89
2022/11/07 19:17:25;;;;;;;4.60;1.73;;;12.70;99.90;;;;;;6082485;23;20067;-92
2022/11/07 19:19:52;;;;;;;6.60;1.88;;;12.70;99.90;;;;;;6112009;23;20272;-91
2022/11/07 19:22:24;;;;;;;6.35;1.60;;;12.70;99.90;;;;;;6162018;23;20013;-90
2022/11/07 19:24:51;;;;;;;6.22;1.65;;;12.70;99.90;;;;;;6149622;23;20102;-92
2022/11/07 19:27:21;;;;;;;9.85;2.28;;;12.70;99.90;;;;;;6159757;23;20022;-90
2022/11/07 19:29:47;;;;;;;5.63;2.10;;;12.70;99.90;;;;;;6089517;23;20028;-91
2022/11/07 19:32:13;;;;;;;4.83;1.77;;;12.70;99.90;;;;;;6135068;22;20013;-92
2022/11/07 19:34:40;;;;;;;4.07;1.47;;;12.70;99.90;;;;;;6136789;23;20025;-91
2022/11/07 19:37:08;;;;;;;4.30;1.50;;;12.70;99.90;;;;;;6208934;22;20247;-93
2022/11/07 19:39:35;;;;;;;4.93;1.40;;;12.80;99.90;;;;;;6191437;23;20017;-92
2022/11/07 19:42:34;;;;;;;4.88;1.38;;;12.70;99.90;;;;;;6189973;23;20386;-93
2022/11/07 19:50:22;;;;;;;4.60;1.13;;;12.80;99.90;;;;;;6216252;22;20032;-93
2022/11/07 20:18:09;;;;;;;3.85;1.10;;;12.90;99.90;;;;;;6274970;22;20122;-94
2022/11/07 20:21:25;;;;;;;4.82;1.17;;;12.90;99.90;;;;;;6198073;23;20354;-93
2022/11/07 20:23:55;;;;;;;3.17;1.15;;;12.90;99.90;;;;;;6165343;23;20020;-93
2022/11/07 23:14:30;;;;;;;2.30;0.90;;;12.80;99.90;;;;;;6207916;22;20029;-96
